createdAt,value
2022-09-09T00:01:25.318Z,12.20
2022-09-09T00:04:06.279Z,12.20
2022-09-09T00:06:45.103Z,12.20
2022-09-09T00:09:17.492Z,12.10
2022-09-09T00:11:49.647Z,12.10
2022-09-09T00:14:23.738Z,12.10
2022-09-09T00:16:58.672Z,12.10
2022-09-09T00:19:51.446Z,12.00
2022-09-09T00:22:24.723Z,12.00
2022-09-09T00:24:56.738Z,12.00
2022-09-09T00:27:31.008Z,12.00
2022-09-09T00:30:23.972Z,12.00
2022-09-09T00:33:13.694Z,12.00
2022-09-09T00:35:48.358Z,12.00
2022-09-09T00:38:22.318Z,11.90
2022-09-09T00:41:15.017Z,11.90
2022-09-09T00:43:42.599Z,11.90
2022-09-09T00:46:22.164Z,11.90
2022-09-09T00:49:03.999Z,11.90
2022-09-09T00:51:47.326Z,11.80
2022-09-09T00:54:26.642Z,11.80
2022-09-09T00:57:14.821Z,11.80
2022-09-09T00:59:53.917Z,11.80
2022-09-09T01:02:29.390Z,11.80
2022-09-09T01:05:11.576Z,11.80
2022-09-09T01:07:38.407Z,11.80
2022-09-09T01:10:14.906Z,11.80
2022-09-09T01:12:44.670Z,11.90
2022-09-09T01:15:17.344Z,11.90
2022-09-09T01:18:05.725Z,11.90
2022-09-09T01:20:50.753Z,11.90
2022-09-09T01:23:50.199Z,11.90
2022-09-09T01:26:23.069Z,11.90
2022-09-09T01:28:54.399Z,11.90
2022-09-09T01:31:27.967Z,11.90
2022-09-09T01:33:54.835Z,11.90
2022-09-09T01:36:40.757Z,11.90
2022-09-09T01:39:07.659Z,12.00
2022-09-09T01:41:34.849Z,11.90
2022-09-09T01:44:01.871Z,12.00
2022-09-09T01:46:29.853Z,12.00
2022-09-09T01:48:58.275Z,12.00
2022-09-09T01:51:25.306Z,12.00
2022-09-09T01:53:52.111Z,12.00
2022-09-09T01:56:42.513Z,12.00
2022-09-09T01:59:19.684Z,12.00
2022-09-09T02:02:14.517Z,12.00
2022-09-09T02:04:42.810Z,11.90
2022-09-09T02:07:34.489Z,12.00
2022-09-09T02:10:25.867Z,12.00
2022-09-09T02:13:02.118Z,11.90
2022-09-09T02:15:37.794Z,11.90
2022-09-09T02:18:09.503Z,12.00
2022-09-09T02:20:39.153Z,11.90
2022-09-09T02:23:09.640Z,11.90
2022-09-09T02:25:38.363Z,11.90
2022-09-09T02:28:09.057Z,11.90
2022-09-09T02:30:37.531Z,11.90
2022-09-09T02:33:07.748Z,11.90
2022-09-09T02:35:38.630Z,11.90
2022-09-09T02:38:11.505Z,11.90
2022-09-09T02:40:38.479Z,11.90
2022-09-09T02:43:05.451Z,11.90
2022-09-09T02:45:43.270Z,11.90
2022-09-09T02:48:19.872Z,11.90
2022-09-09T02:51:18.644Z,11.90
2022-09-09T02:54:09.769Z,11.80
2022-09-09T02:56:45.306Z,11.70
2022-09-09T02:59:12.728Z,11.70
2022-09-09T03:01:41.083Z,11.70
2022-09-09T03:04:08.169Z,11.70
2022-09-09T03:06:35.075Z,11.60
2022-09-09T03:09:03.515Z,11.60
2022-09-09T03:11:30.288Z,11.60
2022-09-09T03:13:57.148Z,11.60
2022-09-09T03:16:24.621Z,11.60
2022-09-09T03:18:51.918Z,11.60
2022-09-09T03:21:19.421Z,11.60
2022-09-09T03:23:48.875Z,11.50
2022-09-09T03:26:18.324Z,11.50
2022-09-09T03:28:45.833Z,11.40
2022-09-09T03:31:12.845Z,11.40
2022-09-09T03:33:40.222Z,11.40
2022-09-09T03:36:08.473Z,11.40
2022-09-09T03:38:35.664Z,11.40
2022-09-09T03:41:03.005Z,11.40
2022-09-09T03:43:30.811Z,11.40
2022-09-09T03:46:00.540Z,11.40
2022-09-09T03:48:29.147Z,11.40
2022-09-09T03:51:01.670Z,11.30
2022-09-09T03:53:29.177Z,11.30
2022-09-09T03:56:00.784Z,11.30
2022-09-09T03:58:28.347Z,11.30
2022-09-09T04:01:03.619Z,11.30
2022-09-09T04:03:31.090Z,11.20
2022-09-09T04:05:59.943Z,11.20
2022-09-09T04:08:27.250Z,11.20
2022-09-09T04:10:58.172Z,11.20
2022-09-09T04:13:26.445Z,11.20
2022-09-09T04:15:55.538Z,11.30
2022-09-09T04:18:22.650Z,11.30
2022-09-09T04:20:51.174Z,11.40
2022-09-09T04:23:20.065Z,11.40
2022-09-09T04:25:47.871Z,11.50
2022-09-09T04:28:18.414Z,11.60
2022-09-09T04:30:46.210Z,11.60
2022-09-09T04:33:14.344Z,11.70
2022-09-09T04:35:49.379Z,11.80
2022-09-09T04:38:17.738Z,11.80
2022-09-09T04:40:47.537Z,11.80
2022-09-09T04:43:15.970Z,11.90
2022-09-09T04:45:43.508Z,11.90
2022-09-09T04:48:13.727Z,12.00
2022-09-09T04:50:41.615Z,12.00
2022-09-09T04:53:08.997Z,12.10
2022-09-09T04:55:36.074Z,12.10
2022-09-09T04:58:06.696Z,12.20
2022-09-09T05:00:36.484Z,12.20
2022-09-09T05:03:09.840Z,12.20
2022-09-09T05:05:36.815Z,12.30
2022-09-09T05:08:07.394Z,12.30
2022-09-09T05:10:35.425Z,12.30
2022-09-09T05:13:02.228Z,12.40
2022-09-09T05:15:29.113Z,12.40
2022-09-09T05:18:03.443Z,12.40
2022-09-09T05:20:30.493Z,12.40
2022-09-09T05:22:57.778Z,12.40
2022-09-09T05:25:27.007Z,12.50
2022-09-09T05:27:54.865Z,12.50
2022-09-09T05:30:23.881Z,12.60
2022-09-09T05:32:51.192Z,12.60
2022-09-09T05:35:20.032Z,12.70
2022-09-09T05:37:47.220Z,12.70
2022-09-09T05:40:14.187Z,12.80
2022-09-09T05:42:41.631Z,12.80
2022-09-09T05:45:09.954Z,12.80
2022-09-09T05:47:38.204Z,12.80
2022-09-09T05:50:05.864Z,12.90
2022-09-09T05:52:33.388Z,13.00
2022-09-09T05:55:00.757Z,13.00
2022-09-09T05:57:27.635Z,13.10
2022-09-09T05:59:54.753Z,13.10
2022-09-09T06:02:21.740Z,13.20
2022-09-09T06:04:48.636Z,13.20
2022-09-09T06:07:15.677Z,13.10
2022-09-09T06:09:42.495Z,13.20
2022-09-09T06:12:09.976Z,13.20
2022-09-09T06:14:37.911Z,13.30
2022-09-09T06:17:06.107Z,13.30
2022-09-09T06:19:33.045Z,13.40
2022-09-09T06:21:59.925Z,13.40
2022-09-09T06:24:26.805Z,13.40
2022-09-09T06:26:53.565Z,13.40
2022-09-09T06:29:20.322Z,13.50
2022-09-09T06:31:47.228Z,13.50
2022-09-09T06:34:14.430Z,13.50
2022-09-09T06:36:41.483Z,13.60
2022-09-09T06:39:14.644Z,13.60
2022-09-09T06:41:42.134Z,13.60
2022-09-09T06:44:11.508Z,13.70
2022-09-09T06:46:39.223Z,13.70
2022-09-09T06:49:07.139Z,13.70
2022-09-09T06:51:37.386Z,13.70
2022-09-09T06:54:04.662Z,13.80
2022-09-09T06:56:41.480Z,13.90
2022-09-09T06:59:09.549Z,13.90
2022-09-09T07:01:38.746Z,13.90
2022-09-09T07:04:10.114Z,14.00
2022-09-09T07:06:39.360Z,13.90
2022-09-09T07:09:09.463Z,14.00
2022-09-09T07:11:47.483Z,14.00
2022-09-09T07:14:15.167Z,14.00
2022-09-09T07:16:43.122Z,14.10
2022-09-09T07:19:10.138Z,14.10
2022-09-09T07:21:37.161Z,14.20
2022-09-09T07:24:06.661Z,14.20
2022-09-09T07:26:33.346Z,14.30
2022-09-09T07:29:19.813Z,14.40
2022-09-09T07:31:47.417Z,14.40
2022-09-09T07:34:14.249Z,14.50
2022-09-09T07:36:43.024Z,14.60
2022-09-09T07:39:14.446Z,14.60
2022-09-09T07:41:47.134Z,14.70
2022-09-09T07:44:20.101Z,14.70
2022-09-09T07:46:47.230Z,14.80
2022-09-09T07:49:14.757Z,14.90
2022-09-09T07:51:46.901Z,14.90
2022-09-09T07:54:15.789Z,15.00
2022-09-09T07:56:43.575Z,15.10
2022-09-09T07:59:11.812Z,15.20
2022-09-09T08:01:41.494Z,15.30
2022-09-09T08:04:16.231Z,15.40
2022-09-09T08:06:45.936Z,15.50
2022-09-09T08:09:13.497Z,15.60
2022-09-09T08:11:41.138Z,15.70
2022-09-09T08:14:10.505Z,15.80
2022-09-09T08:16:41.355Z,15.80
2022-09-09T08:19:08.708Z,15.90
2022-09-09T08:21:37.883Z,16.00
2022-09-09T08:24:12.289Z,16.00
2022-09-09T08:26:44.462Z,16.00
2022-09-09T08:29:12.960Z,16.10
2022-09-09T08:31:49.320Z,16.10
2022-09-09T08:34:16.488Z,16.20
2022-09-09T08:36:45.937Z,16.40
2022-09-09T08:39:18.117Z,16.50
2022-09-09T08:42:00.266Z,16.60
2022-09-09T08:44:38.774Z,16.80
2022-09-09T08:47:40.801Z,16.80
2022-09-09T08:50:28.151Z,16.90
2022-09-09T08:52:58.360Z,16.90
2022-09-09T08:55:49.572Z,16.90
2022-09-09T08:58:21.134Z,17.00
2022-09-09T09:01:07.718Z,17.00
2022-09-09T09:04:12.260Z,17.10
2022-09-09T09:06:44.696Z,17.20
2022-09-09T09:09:37.002Z,17.20
2022-09-09T09:12:19.326Z,17.30
2022-09-09T09:14:48.824Z,17.40
2022-09-09T09:17:21.070Z,17.50
2022-09-09T09:19:50.585Z,17.40
2022-09-09T09:22:55.684Z,17.50
2022-09-09T09:25:32.750Z,17.70
2022-09-09T09:28:25.616Z,17.80
2022-09-09T09:31:07.029Z,17.90
2022-09-09T09:33:54.092Z,17.90
2022-09-09T09:36:25.673Z,17.80
2022-09-09T09:41:51.942Z,17.70
2022-09-09T09:44:30.742Z,17.90
2022-09-09T09:47:27.949Z,17.90
2022-09-09T09:50:03.598Z,17.90
2022-09-09T09:52:32.104Z,17.90
2022-09-09T09:55:04.038Z,17.70
2022-09-09T09:57:35.450Z,17.80
2022-09-09T10:00:08.577Z,17.70
2022-09-09T10:02:41.616Z,17.70
2022-09-09T10:05:22.020Z,17.70
2022-09-09T10:08:10.563Z,17.80
2022-09-09T10:10:41.015Z,17.70
2022-09-09T10:13:16.766Z,17.70
2022-09-09T10:15:57.434Z,17.70
2022-09-09T10:18:43.475Z,17.70
2022-09-09T10:21:33.418Z,17.60
2022-09-09T10:24:37.735Z,17.60
2022-09-09T10:27:21.102Z,17.60
2022-09-09T10:30:17.561Z,17.70
2022-09-09T10:32:44.286Z,17.70
2022-09-09T10:35:20.040Z,17.80
2022-09-09T10:37:49.526Z,17.70
2022-09-09T10:40:27.320Z,17.70
2022-09-09T10:43:21.409Z,17.70
2022-09-09T10:46:05.319Z,17.80
2022-09-09T10:48:53.844Z,17.80
2022-09-09T10:51:29.501Z,17.90
2022-09-09T10:54:38.950Z,18.00
2022-09-09T10:57:14.876Z,18.10
2022-09-09T10:59:48.630Z,18.20
2022-09-09T11:02:28.575Z,18.30
2022-09-09T11:05:02.534Z,18.40
2022-09-09T11:07:41.391Z,18.40
2022-09-09T11:10:25.252Z,18.40
2022-09-09T11:12:57.494Z,18.40
2022-09-09T11:15:42.368Z,18.30
2022-09-09T11:18:16.471Z,18.30
2022-09-09T11:20:45.212Z,18.40
2022-09-09T11:23:18.307Z,18.30
2022-09-09T11:25:52.418Z,18.30
2022-09-09T11:28:59.492Z,18.30
2022-09-09T11:31:42.943Z,18.30
